sensor_id;sensor_type;location;lat;lon;timestamp;P1;P2;P0
61760;PMS5003;47664;51.660;-0.100;2023-05-07T00:01:33;13;12;
61760;PMS5003;47664;51.660;-0.100;2023-05-07T00:04:01;12;11;
61760;PMS5003;47664;51.660;-0.100;2023-05-07T00:06:28;13;10;
61760;PMS5003;47664;51.660;-0.100;2023-05-07T00:08:56;12;10;
61760;PMS5003;47664;51.660;-0.100;2023-05-07T00:11:25;11;11;
61760;PMS5003;47664;51.660;-0.100;2023-05-07T00:13:53;10;8;
61760;PMS5003;47664;51.660;-0.100;2023-05-07T00:16:20;10;9;
61760;PMS5003;47664;51.660;-0.100;2023-05-07T00:18:47;14;14;
61760;PMS5003;47664;51.660;-0.100;2023-05-07T00:21:14;14;14;
61760;PMS5003;47664;51.660;-0.100;2023-05-07T00:23:42;13;12;
61760;PMS5003;47664;51.660;-0.100;2023-05-07T00:26:09;18;14;
61760;PMS5003;47664;51.660;-0.100;2023-05-07T00:28:36;11;11;
61760;PMS5003;47664;51.660;-0.100;2023-05-07T00:31:03;13;13;
61760;PMS5003;47664;51.660;-0.100;2023-05-07T00:33:30;13;13;
61760;PMS5003;47664;51.660;-0.100;2023-05-07T00:35:57;16;14;
61760;PMS5003;47664;51.660;-0.100;2023-05-07T00:38:25;16;10;
61760;PMS5003;47664;51.660;-0.100;2023-05-07T00:40:52;17;14;
61760;PMS5003;47664;51.660;-0.100;2023-05-07T00:43:19;13;11;
61760;PMS5003;47664;51.660;-0.100;2023-05-07T00:45:47;15;12;
61760;PMS5003;47664;51.660;-0.100;2023-05-07T00:48:14;15;12;
61760;PMS5003;47664;51.660;-0.100;2023-05-07T00:50:42;13;10;
61760;PMS5003;47664;51.660;-0.100;2023-05-07T00:53:11;14;13;
61760;PMS5003;47664;51.660;-0.100;2023-05-07T00:55:38;10;9;
61760;PMS5003;47664;51.660;-0.100;2023-05-07T00:58:06;14;12;
61760;PMS5003;47664;51.660;-0.100;2023-05-07T01:00:33;12;10;
61760;PMS5003;47664;51.660;-0.100;2023-05-07T01:03:01;12;12;
61760;PMS5003;47664;51.660;-0.100;2023-05-07T01:05:28;15;12;
61760;PMS5003;47664;51.660;-0.100;2023-05-07T01:07:55;16;11;
61760;PMS5003;47664;51.660;-0.100;2023-05-07T01:10:24;12;9;
61760;PMS5003;47664;51.660;-0.100;2023-05-07T01:12:52;16;16;
61760;PMS5003;47664;51.660;-0.100;2023-05-07T01:15:20;10;10;
61760;PMS5003;47664;51.660;-0.100;2023-05-07T01:17:47;10;8;
61760;PMS5003;47664;51.660;-0.100;2023-05-07T01:20:14;9;8;
61760;PMS5003;47664;51.660;-0.100;2023-05-07T01:22:42;8;7;
61760;PMS5003;47664;51.660;-0.100;2023-05-07T01:25:10;9;9;
61760;PMS5003;47664;51.660;-0.100;2023-05-07T01:27:38;10;10;
61760;PMS5003;47664;51.660;-0.100;2023-05-07T01:30:05;13;12;
61760;PMS5003;47664;51.660;-0.100;2023-05-07T01:32:35;15;11;
61760;PMS5003;47664;51.660;-0.100;2023-05-07T01:35:07;11;10;
61760;PMS5003;47664;51.660;-0.100;2023-05-07T01:37:37;10;10;
61760;PMS5003;47664;51.660;-0.100;2023-05-07T01:40:06;12;12;
61760;PMS5003;47664;51.660;-0.100;2023-05-07T01:42:35;12;10;
61760;PMS5003;47664;51.660;-0.100;2023-05-07T01:45:02;9;9;
61760;PMS5003;47664;51.660;-0.100;2023-05-07T01:47:30;13;11;
61760;PMS5003;47664;51.660;-0.100;2023-05-07T01:49:58;12;11;
61760;PMS5003;47664;51.660;-0.100;2023-05-07T01:52:27;10;10;
61760;PMS5003;47664;51.660;-0.100;2023-05-07T01:54:55;11;10;
61760;PMS5003;47664;51.660;-0.100;2023-05-07T01:57:22;10;10;
61760;PMS5003;47664;51.660;-0.100;2023-05-07T01:59:49;10;10;
61760;PMS5003;47664;51.660;-0.100;2023-05-07T02:02:16;9;7;
61760;PMS5003;47664;51.660;-0.100;2023-05-07T02:04:43;12;10;
61760;PMS5003;47664;51.660;-0.100;2023-05-07T02:07:11;12;10;
61760;PMS5003;47664;51.660;-0.100;2023-05-07T02:09:38;18;11;
61760;PMS5003;47664;51.660;-0.100;2023-05-07T02:12:05;11;9;
61760;PMS5003;47664;51.660;-0.100;2023-05-07T02:14:33;7;7;
61760;PMS5003;47664;51.660;-0.100;2023-05-07T02:17:00;12;11;
61760;PMS5003;47664;51.660;-0.100;2023-05-07T02:19:27;11;11;
61760;PMS5003;47664;51.660;-0.100;2023-05-07T02:21:54;12;12;
61760;PMS5003;47664;51.660;-0.100;2023-05-07T02:24:21;15;13;
61760;PMS5003;47664;51.660;-0.100;2023-05-07T02:26:49;20;14;
61760;PMS5003;47664;51.660;-0.100;2023-05-07T02:29:17;14;12;
61760;PMS5003;47664;51.660;-0.100;2023-05-07T02:31:44;17;15;
61760;PMS5003;47664;51.660;-0.100;2023-05-07T02:34:11;18;15;
61760;PMS5003;47664;51.660;-0.100;2023-05-07T02:36:39;14;13;
61760;PMS5003;47664;51.660;-0.100;2023-05-07T02:39:06;14;13;
61760;PMS5003;47664;51.660;-0.100;2023-05-07T02:41:34;17;15;
61760;PMS5003;47664;51.660;-0.100;2023-05-07T02:44:01;15;13;
61760;PMS5003;47664;51.660;-0.100;2023-05-07T02:46:28;22;17;
61760;PMS5003;47664;51.660;-0.100;2023-05-07T02:48:56;14;13;
61760;PMS5003;47664;51.660;-0.100;2023-05-07T02:51:23;15;11;
61760;PMS5003;47664;51.660;-0.100;2023-05-07T02:53:51;13;13;
61760;PMS5003;47664;51.660;-0.100;2023-05-07T02:56:20;14;14;
61760;PMS5003;47664;51.660;-0.100;2023-05-07T02:58:49;22;19;
61760;PMS5003;47664;51.660;-0.100;2023-05-07T03:01:17;15;15;
61760;PMS5003;47664;51.660;-0.100;2023-05-07T03:03:45;16;13;
61760;PMS5003;47664;51.660;-0.100;2023-05-07T03:06:12;15;15;
61760;PMS5003;47664;51.660;-0.100;2023-05-07T03:08:39;16;13;
61760;PMS5003;47664;51.660;-0.100;2023-05-07T03:11:07;18;15;
61760;PMS5003;47664;51.660;-0.100;2023-05-07T03:13:34;16;16;
61760;PMS5003;47664;51.660;-0.100;2023-05-07T03:16:01;18;13;
61760;PMS5003;47664;51.660;-0.100;2023-05-07T03:18:28;23;20;
61760;PMS5003;47664;51.660;-0.100;2023-05-07T03:20:55;17;15;
61760;PMS5003;47664;51.660;-0.100;2023-05-07T03:23:22;16;15;
61760;PMS5003;47664;51.660;-0.100;2023-05-07T03:25:50;19;17;
61760;PMS5003;47664;51.660;-0.100;2023-05-07T03:28:17;18;16;
61760;PMS5003;47664;51.660;-0.100;2023-05-07T03:30:44;23;15;
61760;PMS5003;47664;51.660;-0.100;2023-05-07T03:33:12;20;14;
61760;PMS5003;47664;51.660;-0.100;2023-05-07T03:35:39;19;16;
61760;PMS5003;47664;51.660;-0.100;2023-05-07T03:38:07;21;17;
61760;PMS5003;47664;51.660;-0.100;2023-05-07T03:40:34;19;19;
61760;PMS5003;47664;51.660;-0.100;2023-05-07T03:43:02;21;19;
61760;PMS5003;47664;51.660;-0.100;2023-05-07T03:45:29;23;16;
61760;PMS5003;47664;51.660;-0.100;2023-05-07T03:47:56;16;14;
61760;PMS5003;47664;51.660;-0.100;2023-05-07T03:50:24;20;16;
61760;PMS5003;47664;51.660;-0.100;2023-05-07T03:52:52;17;17;
61760;PMS5003;47664;51.660;-0.100;2023-05-07T03:55:19;21;15;
61760;PMS5003;47664;51.660;-0.100;2023-05-07T03:57:47;25;22;
61760;PMS5003;47664;51.660;-0.100;2023-05-07T04:00:14;17;16;
61760;PMS5003;47664;51.660;-0.100;2023-05-07T04:02:42;23;16;
61760;PMS5003;47664;51.660;-0.100;2023-05-07T04:05:10;19;16;
61760;PMS5003;47664;51.660;-0.100;2023-05-07T04:07:38;18;16;
61760;PMS5003;47664;51.660;-0.100;2023-05-07T04:10:06;19;19;
61760;PMS5003;47664;51.660;-0.100;2023-05-07T04:12:33;22;21;
61760;PMS5003;47664;51.660;-0.100;2023-05-07T04:15:01;19;16;
61760;PMS5003;47664;51.660;-0.100;2023-05-07T04:17:28;25;23;
61760;PMS5003;47664;51.660;-0.100;2023-05-07T04:19:55;23;20;
61760;PMS5003;47664;51.660;-0.100;2023-05-07T04:22:23;20;17;
61760;PMS5003;47664;51.660;-0.100;2023-05-07T04:24:50;21;18;
61760;PMS5003;47664;51.660;-0.100;2023-05-07T04:27:18;23;19;
61760;PMS5003;47664;51.660;-0.100;2023-05-07T04:29:45;19;17;
61760;PMS5003;47664;51.660;-0.100;2023-05-07T04:32:13;18;16;
61760;PMS5003;47664;51.660;-0.100;2023-05-07T04:34:40;20;18;
61760;PMS5003;47664;51.660;-0.100;2023-05-07T04:37:08;23;19;
61760;PMS5003;47664;51.660;-0.100;2023-05-07T04:39:36;22;20;
61760;PMS5003;47664;51.660;-0.100;2023-05-07T04:42:03;16;14;
61760;PMS5003;47664;51.660;-0.100;2023-05-07T04:44:30;16;12;
61760;PMS5003;47664;51.660;-0.100;2023-05-07T04:46:57;18;12;
61760;PMS5003;47664;51.660;-0.100;2023-05-07T04:49:24;18;18;
61760;PMS5003;47664;51.660;-0.100;2023-05-07T04:51:52;13;11;
61760;PMS5003;47664;51.660;-0.100;2023-05-07T04:54:19;15;12;
61760;PMS5003;47664;51.660;-0.100;2023-05-07T04:56:47;15;13;
61760;PMS5003;47664;51.660;-0.100;2023-05-07T04:59:14;14;11;
61760;PMS5003;47664;51.660;-0.100;2023-05-07T05:01:42;15;13;
61760;PMS5003;47664;51.660;-0.100;2023-05-07T05:04:09;15;10;
61760;PMS5003;47664;51.660;-0.100;2023-05-07T05:06:37;16;15;
61760;PMS5003;47664;51.660;-0.100;2023-05-07T05:09:04;12;10;
61760;PMS5003;47664;51.660;-0.100;2023-05-07T05:11:32;10;9;
61760;PMS5003;47664;51.660;-0.100;2023-05-07T05:13:59;14;11;
61760;PMS5003;47664;51.660;-0.100;2023-05-07T05:16:26;8;8;
61760;PMS5003;47664;51.660;-0.100;2023-05-07T05:18:53;11;11;
61760;PMS5003;47664;51.660;-0.100;2023-05-07T05:21:20;7;7;
61760;PMS5003;47664;51.660;-0.100;2023-05-07T05:23:48;10;9;
61760;PMS5003;47664;51.660;-0.100;2023-05-07T05:26:15;10;9;
61760;PMS5003;47664;51.660;-0.100;2023-05-07T05:28:44;11;10;
61760;PMS5003;47664;51.660;-0.100;2023-05-07T05:31:12;11;11;
61760;PMS5003;47664;51.660;-0.100;2023-05-07T05:33:41;16;13;
61760;PMS5003;47664;51.660;-0.100;2023-05-07T05:36:09;11;10;
61760;PMS5003;47664;51.660;-0.100;2023-05-07T05:38:36;12;8;
61760;PMS5003;47664;51.660;-0.100;2023-05-07T05:41:04;10;10;
61760;PMS5003;47664;51.660;-0.100;2023-05-07T05:43:31;10;9;
61760;PMS5003;47664;51.660;-0.100;2023-05-07T05:45:59;17;13;
61760;PMS5003;47664;51.660;-0.100;2023-05-07T05:48:26;10;10;
61760;PMS5003;47664;51.660;-0.100;2023-05-07T05:50:55;8;6;
61760;PMS5003;47664;51.660;-0.100;2023-05-07T05:53:22;12;12;
61760;PMS5003;47664;51.660;-0.100;2023-05-07T05:55:49;11;10;
61760;PMS5003;47664;51.660;-0.100;2023-05-07T05:58:17;11;8;
61760;PMS5003;47664;51.660;-0.100;2023-05-07T06:00:46;12;9;
61760;PMS5003;47664;51.660;-0.100;2023-05-07T06:03:14;8;8;
61760;PMS5003;47664;51.660;-0.100;2023-05-07T06:05:41;10;7;
61760;PMS5003;47664;51.660;-0.100;2023-05-07T06:08:08;8;7;
61760;PMS5003;47664;51.660;-0.100;2023-05-07T06:10:35;9;9;
61760;PMS5003;47664;51.660;-0.100;2023-05-07T06:13:03;10;8;
61760;PMS5003;47664;51.660;-0.100;2023-05-07T06:15:30;9;7;
61760;PMS5003;47664;51.660;-0.100;2023-05-07T06:17:57;11;9;
61760;PMS5003;47664;51.660;-0.100;2023-05-07T06:20:24;8;7;
61760;PMS5003;47664;51.660;-0.100;2023-05-07T06:22:52;12;11;
61760;PMS5003;47664;51.660;-0.100;2023-05-07T06:25:19;11;10;
61760;PMS5003;47664;51.660;-0.100;2023-05-07T06:27:46;6;6;
61760;PMS5003;47664;51.660;-0.100;2023-05-07T06:30:13;11;8;
61760;PMS5003;47664;51.660;-0.100;2023-05-07T06:32:41;11;11;
61760;PMS5003;47664;51.660;-0.100;2023-05-07T06:35:08;10;9;
61760;PMS5003;47664;51.660;-0.100;2023-05-07T06:37:35;12;10;
61760;PMS5003;47664;51.660;-0.100;2023-05-07T06:40:03;8;7;
61760;PMS5003;47664;51.660;-0.100;2023-05-07T06:42:31;15;12;
61760;PMS5003;47664;51.660;-0.100;2023-05-07T06:44:58;12;9;
61760;PMS5003;47664;51.660;-0.100;2023-05-07T06:47:25;7;7;
61760;PMS5003;47664;51.660;-0.100;2023-05-07T06:49:52;12;9;
61760;PMS5003;47664;51.660;-0.100;2023-05-07T06:52:19;11;8;
61760;PMS5003;47664;51.660;-0.100;2023-05-07T06:54:46;11;8;
61760;PMS5003;47664;51.660;-0.100;2023-05-07T06:57:14;11;10;
61760;PMS5003;47664;51.660;-0.100;2023-05-07T06:59:42;11;9;
61760;PMS5003;47664;51.660;-0.100;2023-05-07T07:02:09;13;11;
61760;PMS5003;47664;51.660;-0.100;2023-05-07T07:04:37;11;9;
61760;PMS5003;47664;51.660;-0.100;2023-05-07T07:07:04;9;8;
61760;PMS5003;47664;51.660;-0.100;2023-05-07T07:09:31;14;13;
61760;PMS5003;47664;51.660;-0.100;2023-05-07T07:11:58;10;9;
61760;PMS5003;47664;51.660;-0.100;2023-05-07T07:14:25;13;11;
61760;PMS5003;47664;51.660;-0.100;2023-05-07T07:16:53;12;11;
61760;PMS5003;47664;51.660;-0.100;2023-05-07T07:19:20;8;8;
61760;PMS5003;47664;51.660;-0.100;2023-05-07T07:21:46;10;9;
61760;PMS5003;47664;51.660;-0.100;2023-05-07T07:24:14;10;7;
61760;PMS5003;47664;51.660;-0.100;2023-05-07T07:26:41;12;11;
61760;PMS5003;47664;51.660;-0.100;2023-05-07T07:29:08;10;8;
61760;PMS5003;47664;51.660;-0.100;2023-05-07T07:31:36;8;8;
61760;PMS5003;47664;51.660;-0.100;2023-05-07T07:34:02;9;9;
61760;PMS5003;47664;51.660;-0.100;2023-05-07T07:36:29;6;6;
61760;PMS5003;47664;51.660;-0.100;2023-05-07T07:38:56;10;7;
61760;PMS5003;47664;51.660;-0.100;2023-05-07T07:41:23;8;8;
61760;PMS5003;47664;51.660;-0.100;2023-05-07T07:43:51;10;10;
61760;PMS5003;47664;51.660;-0.100;2023-05-07T07:46:18;12;10;
61760;PMS5003;47664;51.660;-0.100;2023-05-07T07:48:46;11;8;
61760;PMS5003;47664;51.660;-0.100;2023-05-07T07:51:14;12;9;
61760;PMS5003;47664;51.660;-0.100;2023-05-07T07:53:42;14;10;
61760;PMS5003;47664;51.660;-0.100;2023-05-07T07:56:10;11;9;
61760;PMS5003;47664;51.660;-0.100;2023-05-07T07:58:38;13;12;
61760;PMS5003;47664;51.660;-0.100;2023-05-07T08:01:05;7;5;
61760;PMS5003;47664;51.660;-0.100;2023-05-07T08:03:32;10;8;
61760;PMS5003;47664;51.660;-0.100;2023-05-07T08:05:59;13;12;
61760;PMS5003;47664;51.660;-0.100;2023-05-07T08:08:26;8;5;
61760;PMS5003;47664;51.660;-0.100;2023-05-07T08:10:53;12;9;
61760;PMS5003;47664;51.660;-0.100;2023-05-07T08:13:21;6;6;
61760;PMS5003;47664;51.660;-0.100;2023-05-07T08:15:49;9;7;
61760;PMS5003;47664;51.660;-0.100;2023-05-07T08:18:16;11;11;
61760;PMS5003;47664;51.660;-0.100;2023-05-07T08:20:43;11;8;
61760;PMS5003;47664;51.660;-0.100;2023-05-07T08:23:10;11;8;
61760;PMS5003;47664;51.660;-0.100;2023-05-07T08:25:38;10;9;
61760;PMS5003;47664;51.660;-0.100;2023-05-07T08:28:05;10;9;
61760;PMS5003;47664;51.660;-0.100;2023-05-07T08:30:31;9;7;
61760;PMS5003;47664;51.660;-0.100;2023-05-07T08:32:59;10;10;
61760;PMS5003;47664;51.660;-0.100;2023-05-07T08:35:26;8;8;
61760;PMS5003;47664;51.660;-0.100;2023-05-07T08:37:53;8;8;
61760;PMS5003;47664;51.660;-0.100;2023-05-07T08:40:20;10;9;
61760;PMS5003;47664;51.660;-0.100;2023-05-07T08:42:51;9;9;
61760;PMS5003;47664;51.660;-0.100;2023-05-07T08:45:20;11;8;
61760;PMS5003;47664;51.660;-0.100;2023-05-07T08:47:47;11;9;
61760;PMS5003;47664;51.660;-0.100;2023-05-07T08:50:21;7;7;
61760;PMS5003;47664;51.660;-0.100;2023-05-07T08:52:48;8;8;
61760;PMS5003;47664;51.660;-0.100;2023-05-07T08:55:16;10;7;
61760;PMS5003;47664;51.660;-0.100;2023-05-07T08:57:44;10;10;
61760;PMS5003;47664;51.660;-0.100;2023-05-07T09:00:11;8;8;
61760;PMS5003;47664;51.660;-0.100;2023-05-07T09:02:39;8;7;
61760;PMS5003;47664;51.660;-0.100;2023-05-07T09:05:06;6;6;
61760;PMS5003;47664;51.660;-0.100;2023-05-07T09:07:34;11;9;
61760;PMS5003;47664;51.660;-0.100;2023-05-07T09:10:01;7;7;
61760;PMS5003;47664;51.660;-0.100;2023-05-07T09:12:28;11;9;
61760;PMS5003;47664;51.660;-0.100;2023-05-07T09:14:56;9;9;
61760;PMS5003;47664;51.660;-0.100;2023-05-07T09:17:25;10;10;
61760;PMS5003;47664;51.660;-0.100;2023-05-07T09:19:52;10;8;
61760;PMS5003;47664;51.660;-0.100;2023-05-07T09:22:19;13;10;
61760;PMS5003;47664;51.660;-0.100;2023-05-07T09:24:47;11;9;
61760;PMS5003;47664;51.660;-0.100;2023-05-07T09:27:15;10;8;
61760;PMS5003;47664;51.660;-0.100;2023-05-07T09:29:44;12;12;
61760;PMS5003;47664;51.660;-0.100;2023-05-07T09:32:11;13;9;
61760;PMS5003;47664;51.660;-0.100;2023-05-07T09:34:41;11;8;
61760;PMS5003;47664;51.660;-0.100;2023-05-07T09:37:08;13;13;
61760;PMS5003;47664;51.660;-0.100;2023-05-07T09:39:39;12;10;
61760;PMS5003;47664;51.660;-0.100;2023-05-07T09:42:07;9;9;
61760;PMS5003;47664;51.660;-0.100;2023-05-07T09:44:35;14;11;
61760;PMS5003;47664;51.660;-0.100;2023-05-07T09:47:04;14;13;
61760;PMS5003;47664;51.660;-0.100;2023-05-07T09:49:33;11;6;
61760;PMS5003;47664;51.660;-0.100;2023-05-07T09:52:02;12;7;
61760;PMS5003;47664;51.660;-0.100;2023-05-07T09:54:31;16;11;
61760;PMS5003;47664;51.660;-0.100;2023-05-07T09:57:00;12;9;
61760;PMS5003;47664;51.660;-0.100;2023-05-07T09:59:30;13;12;
61760;PMS5003;47664;51.660;-0.100;2023-05-07T10:01:59;9;8;
61760;PMS5003;47664;51.660;-0.100;2023-05-07T10:04:28;11;8;
61760;PMS5003;47664;51.660;-0.100;2023-05-07T10:06:55;11;10;
61760;PMS5003;47664;51.660;-0.100;2023-05-07T10:09:23;7;7;
61760;PMS5003;47664;51.660;-0.100;2023-05-07T10:11:53;7;6;
61760;PMS5003;47664;51.660;-0.100;2023-05-07T10:14:21;11;9;
61760;PMS5003;47664;51.660;-0.100;2023-05-07T10:16:48;9;8;
61760;PMS5003;47664;51.660;-0.100;2023-05-07T10:19:15;8;8;
61760;PMS5003;47664;51.660;-0.100;2023-05-07T10:21:44;7;6;
61760;PMS5003;47664;51.660;-0.100;2023-05-07T10:24:21;10;9;
61760;PMS5003;47664;51.660;-0.100;2023-05-07T10:26:52;4;4;
61760;PMS5003;47664;51.660;-0.100;2023-05-07T10:29:27;5;5;
61760;PMS5003;47664;51.660;-0.100;2023-05-07T10:32:07;6;6;
61760;PMS5003;47664;51.660;-0.100;2023-05-07T10:34:45;6;3;
61760;PMS5003;47664;51.660;-0.100;2023-05-07T10:37:17;6;6;
61760;PMS5003;47664;51.660;-0.100;2023-05-07T10:39:45;6;6;
61760;PMS5003;47664;51.660;-0.100;2023-05-07T10:42:13;8;6;
61760;PMS5003;47664;51.660;-0.100;2023-05-07T10:44:41;6;5;
61760;PMS5003;47664;51.660;-0.100;2023-05-07T10:47:08;7;6;
61760;PMS5003;47664;51.660;-0.100;2023-05-07T10:49:38;6;5;
61760;PMS5003;47664;51.660;-0.100;2023-05-07T10:52:53;6;5;
61760;PMS5003;47664;51.660;-0.100;2023-05-07T10:55:49;4;4;
61760;PMS5003;47664;51.660;-0.100;2023-05-07T10:58:25;5;5;
61760;PMS5003;47664;51.660;-0.100;2023-05-07T11:00:56;6;6;
61760;PMS5003;47664;51.660;-0.100;2023-05-07T11:03:24;7;6;
61760;PMS5003;47664;51.660;-0.100;2023-05-07T11:06:08;7;5;
61760;PMS5003;47664;51.660;-0.100;2023-05-07T11:08:53;3;3;
61760;PMS5003;47664;51.660;-0.100;2023-05-07T11:11:42;6;6;
61760;PMS5003;47664;51.660;-0.100;2023-05-07T11:14:11;6;6;
61760;PMS5003;47664;51.660;-0.100;2023-05-07T11:16:40;4;4;
61760;PMS5003;47664;51.660;-0.100;2023-05-07T11:19:09;5;5;
61760;PMS5003;47664;51.660;-0.100;2023-05-07T11:21:37;7;5;
61760;PMS5003;47664;51.660;-0.100;2023-05-07T11:24:06;6;6;
61760;PMS5003;47664;51.660;-0.100;2023-05-07T11:26:42;6;6;
61760;PMS5003;47664;51.660;-0.100;2023-05-07T11:29:12;4;4;
61760;PMS5003;47664;51.660;-0.100;2023-05-07T11:31:41;9;6;
61760;PMS5003;47664;51.660;-0.100;2023-05-07T11:34:08;6;5;
61760;PMS5003;47664;51.660;-0.100;2023-05-07T11:36:40;4;3;
61760;PMS5003;47664;51.660;-0.100;2023-05-07T11:39:25;5;4;
61760;PMS5003;47664;51.660;-0.100;2023-05-07T11:41:53;8;7;
61760;PMS5003;47664;51.660;-0.100;2023-05-07T11:44:20;5;5;
61760;PMS5003;47664;51.660;-0.100;2023-05-07T11:46:48;6;6;
61760;PMS5003;47664;51.660;-0.100;2023-05-07T11:49:16;6;6;
61760;PMS5003;47664;51.660;-0.100;2023-05-07T11:51:44;8;4;
61760;PMS5003;47664;51.660;-0.100;2023-05-07T11:54:11;4;3;
61760;PMS5003;47664;51.660;-0.100;2023-05-07T11:56:43;5;3;
61760;PMS5003;47664;51.660;-0.100;2023-05-07T11:59:11;6;5;
61760;PMS5003;47664;51.660;-0.100;2023-05-07T12:01:45;5;5;
61760;PMS5003;47664;51.660;-0.100;2023-05-07T12:04:12;7;5;
61760;PMS5003;47664;51.660;-0.100;2023-05-07T12:06:39;6;5;
61760;PMS5003;47664;51.660;-0.100;2023-05-07T12:09:06;5;5;
61760;PMS5003;47664;51.660;-0.100;2023-05-07T12:11:33;4;3;
61760;PMS5003;47664;51.660;-0.100;2023-05-07T12:14:01;5;5;
61760;PMS5003;47664;51.660;-0.100;2023-05-07T12:16:28;5;5;
61760;PMS5003;47664;51.660;-0.100;2023-05-07T12:18:55;4;4;
61760;PMS5003;47664;51.660;-0.100;2023-05-07T12:21:23;7;4;
61760;PMS5003;47664;51.660;-0.100;2023-05-07T12:23:50;9;6;
61760;PMS5003;47664;51.660;-0.100;2023-05-07T12:26:19;6;6;
61760;PMS5003;47664;51.660;-0.100;2023-05-07T12:28:46;4;4;
61760;PMS5003;47664;51.660;-0.100;2023-05-07T12:31:13;5;5;
61760;PMS5003;47664;51.660;-0.100;2023-05-07T12:33:41;5;5;
61760;PMS5003;47664;51.660;-0.100;2023-05-07T12:36:11;6;4;
61760;PMS5003;47664;51.660;-0.100;2023-05-07T12:38:39;4;3;
61760;PMS5003;47664;51.660;-0.100;2023-05-07T12:41:07;3;3;
61760;PMS5003;47664;51.660;-0.100;2023-05-07T12:43:36;2;2;
61760;PMS5003;47664;51.660;-0.100;2023-05-07T12:46:03;6;3;
61760;PMS5003;47664;51.660;-0.100;2023-05-07T12:48:31;3;3;
61760;PMS5003;47664;51.660;-0.100;2023-05-07T12:50:59;4;4;
61760;PMS5003;47664;51.660;-0.100;2023-05-07T12:53:27;5;5;
61760;PMS5003;47664;51.660;-0.100;2023-05-07T12:55:56;3;3;
61760;PMS5003;47664;51.660;-0.100;2023-05-07T12:58:25;5;4;
61760;PMS5003;47664;51.660;-0.100;2023-05-07T13:00:53;2;2;
61760;PMS5003;47664;51.660;-0.100;2023-05-07T13:03:22;1;1;
61760;PMS5003;47664;51.660;-0.100;2023-05-07T13:05:51;3;3;
61760;PMS5003;47664;51.660;-0.100;2023-05-07T13:08:24;6;4;
61760;PMS5003;47664;51.660;-0.100;2023-05-07T13:10:54;5;3;
61760;PMS5003;47664;51.660;-0.100;2023-05-07T13:13:22;4;4;
61760;PMS5003;47664;51.660;-0.100;2023-05-07T13:15:49;5;4;
61760;PMS5003;47664;51.660;-0.100;2023-05-07T13:18:16;3;3;
61760;PMS5003;47664;51.660;-0.100;2023-05-07T13:20:44;5;4;
61760;PMS5003;47664;51.660;-0.100;2023-05-07T13:23:11;4;4;
61760;PMS5003;47664;51.660;-0.100;2023-05-07T13:25:39;6;6;
61760;PMS5003;47664;51.660;-0.100;2023-05-07T13:28:07;5;5;
61760;PMS5003;47664;51.660;-0.100;2023-05-07T13:30:33;4;4;
61760;PMS5003;47664;51.660;-0.100;2023-05-07T13:33:00;11;10;
61760;PMS5003;47664;51.660;-0.100;2023-05-07T13:35:27;7;5;
61760;PMS5003;47664;51.660;-0.100;2023-05-07T13:37:54;4;4;
61760;PMS5003;47664;51.660;-0.100;2023-05-07T13:40:22;7;5;
61760;PMS5003;47664;51.660;-0.100;2023-05-07T13:42:50;3;3;
61760;PMS5003;47664;51.660;-0.100;2023-05-07T13:45:18;5;5;
61760;PMS5003;47664;51.660;-0.100;2023-05-07T13:47:45;6;6;
61760;PMS5003;47664;51.660;-0.100;2023-05-07T13:50:13;3;2;
61760;PMS5003;47664;51.660;-0.100;2023-05-07T13:52:41;4;4;
61760;PMS5003;47664;51.660;-0.100;2023-05-07T13:55:08;5;3;
61760;PMS5003;47664;51.660;-0.100;2023-05-07T13:57:36;3;3;
61760;PMS5003;47664;51.660;-0.100;2023-05-07T14:00:05;4;2;
61760;PMS5003;47664;51.660;-0.100;2023-05-07T14:02:34;2;2;
61760;PMS5003;47664;51.660;-0.100;2023-05-07T14:05:02;2;2;
61760;PMS5003;47664;51.660;-0.100;2023-05-07T14:07:29;1;1;
61760;PMS5003;47664;51.660;-0.100;2023-05-07T14:09:57;8;6;
61760;PMS5003;47664;51.660;-0.100;2023-05-07T14:12:25;17;17;
61760;PMS5003;47664;51.660;-0.100;2023-05-07T14:14:52;7;7;
61760;PMS5003;47664;51.660;-0.100;2023-05-07T14:17:19;6;6;
61760;PMS5003;47664;51.660;-0.100;2023-05-07T14:19:46;11;10;
61760;PMS5003;47664;51.660;-0.100;2023-05-07T14:22:14;20;17;
61760;PMS5003;47664;51.660;-0.100;2023-05-07T14:24:41;9;6;
61760;PMS5003;47664;51.660;-0.100;2023-05-07T14:27:08;6;4;
61760;PMS5003;47664;51.660;-0.100;2023-05-07T14:29:35;1;1;
61760;PMS5003;47664;51.660;-0.100;2023-05-07T14:32:02;4;3;
61760;PMS5003;47664;51.660;-0.100;2023-05-07T14:34:30;6;6;
61760;PMS5003;47664;51.660;-0.100;2023-05-07T14:36:58;5;4;
61760;PMS5003;47664;51.660;-0.100;2023-05-07T14:39:25;9;5;
61760;PMS5003;47664;51.660;-0.100;2023-05-07T14:41:52;5;5;
61760;PMS5003;47664;51.660;-0.100;2023-05-07T14:44:19;9;8;
61760;PMS5003;47664;51.660;-0.100;2023-05-07T14:46:46;4;4;
61760;PMS5003;47664;51.660;-0.100;2023-05-07T14:49:13;6;4;
61760;PMS5003;47664;51.660;-0.100;2023-05-07T14:51:41;7;6;
61760;PMS5003;47664;51.660;-0.100;2023-05-07T14:54:09;7;5;
61760;PMS5003;47664;51.660;-0.100;2023-05-07T14:56:36;6;6;
61760;PMS5003;47664;51.660;-0.100;2023-05-07T14:59:04;4;4;
61760;PMS5003;47664;51.660;-0.100;2023-05-07T15:01:31;3;3;
61760;PMS5003;47664;51.660;-0.100;2023-05-07T15:03:57;4;2;
61760;PMS5003;47664;51.660;-0.100;2023-05-07T15:06:24;1;1;
61760;PMS5003;47664;51.660;-0.100;2023-05-07T15:08:52;2;2;
61760;PMS5003;47664;51.660;-0.100;2023-05-07T15:11:20;1;1;
61760;PMS5003;47664;51.660;-0.100;2023-05-07T15:13:48;2;2;
61760;PMS5003;47664;51.660;-0.100;2023-05-07T15:16:15;0;0;
61760;PMS5003;47664;51.660;-0.100;2023-05-07T15:18:43;2;2;
61760;PMS5003;47664;51.660;-0.100;2023-05-07T15:21:10;2;2;
61760;PMS5003;47664;51.660;-0.100;2023-05-07T15:23:37;1;1;
61760;PMS5003;47664;51.660;-0.100;2023-05-07T15:26:04;2;2;
61760;PMS5003;47664;51.660;-0.100;2023-05-07T15:28:31;1;1;
61760;PMS5003;47664;51.660;-0.100;2023-05-07T15:30:58;3;3;
61760;PMS5003;47664;51.660;-0.100;2023-05-07T15:33:26;2;2;
61760;PMS5003;47664;51.660;-0.100;2023-05-07T15:35:54;4;3;
61760;PMS5003;47664;51.660;-0.100;2023-05-07T15:38:21;4;2;
61760;PMS5003;47664;51.660;-0.100;2023-05-07T15:40:48;3;3;
61760;PMS5003;47664;51.660;-0.100;2023-05-07T15:43:15;4;4;
61760;PMS5003;47664;51.660;-0.100;2023-05-07T15:45:44;2;2;
61760;PMS5003;47664;51.660;-0.100;2023-05-07T15:48:11;3;3;
61760;PMS5003;47664;51.660;-0.100;2023-05-07T15:50:38;5;4;
61760;PMS5003;47664;51.660;-0.100;2023-05-07T15:53:06;4;4;
61760;PMS5003;47664;51.660;-0.100;2023-05-07T15:55:34;2;2;
61760;PMS5003;47664;51.660;-0.100;2023-05-07T15:58:00;4;2;
61760;PMS5003;47664;51.660;-0.100;2023-05-07T16:00:27;4;4;
61760;PMS5003;47664;51.660;-0.100;2023-05-07T16:02:54;4;4;
61760;PMS5003;47664;51.660;-0.100;2023-05-07T16:05:22;3;3;
61760;PMS5003;47664;51.660;-0.100;2023-05-07T16:07:50;2;2;
61760;PMS5003;47664;51.660;-0.100;2023-05-07T16:10:17;3;3;
61760;PMS5003;47664;51.660;-0.100;2023-05-07T16:12:44;2;2;
61760;PMS5003;47664;51.660;-0.100;2023-05-07T16:15:11;4;4;
61760;PMS5003;47664;51.660;-0.100;2023-05-07T16:17:39;15;11;
61760;PMS5003;47664;51.660;-0.100;2023-05-07T16:20:06;3;3;
61760;PMS5003;47664;51.660;-0.100;2023-05-07T16:22:34;4;4;
61760;PMS5003;47664;51.660;-0.100;2023-05-07T16:25:01;7;4;